ADDS METAR Data INFO
IDs: Format: Raw Decoded Include TAF

Data at: 1529 UTC 18 Jun 2018

METAR for:KFLL (Ft Lauderdale-Hollyw, FL, US)
Text:KFLL 181453Z 09009KT 10SM SCT025 SCT090 BKN250 30/25 A3010 RMK AO2 SLP193 T03000250 51006
Temperature: 30.0°C ( 86°F)
Dewpoint: 25.0°C ( 77°F) [RH = 75%]
Pressure (altimeter):30.10 inches Hg (1019.4 mb) [Sea level pressure: 1019.3 mb]
Winds:from the E (90 degrees) at 10 MPH (9 knots; 4.6 m/s)
Visibility:10 or more sm (16+ km)
Ceiling:25000 feet AGL
Clouds: scattered clouds at 2500 feet AGL, scattered clouds at 9000 feet AGL, broken clouds at 25000 feet AGL